createdAt,value
2019-01-10T00:00:02.795Z,4.10
2019-01-10T00:05:03.069Z,4.63
2019-01-10T00:10:02.558Z,5.60
2019-01-10T00:15:02.918Z,5.20
2019-01-10T00:20:03.352Z,5.90
2019-01-10T00:25:02.704Z,5.30
2019-01-10T00:30:03.115Z,4.73
2019-01-10T00:35:02.531Z,4.77
2019-01-10T00:40:02.973Z,4.70
2019-01-10T00:45:02.392Z,5.13
2019-01-10T00:50:01.931Z,0
2019-01-10T00:55:03.408Z,4.93
2019-01-10T01:00:02.829Z,4.33
2019-01-10T01:05:03.139Z,4.83
2019-01-10T01:10:02.565Z,4.50
2019-01-10T01:15:02.898Z,4.23
2019-01-10T01:20:03.341Z,4.07
2019-01-10T01:25:02.758Z,4.47
2019-01-10T01:30:03.102Z,4.63
2019-01-10T01:35:02.517Z,4.60
2019-01-10T01:40:02.963Z,4.20
2019-01-10T01:45:03.308Z,4.50
2019-01-10T01:50:02.723Z,4.60
2019-01-10T01:55:03.063Z,4.30
2019-01-10T02:00:02.479Z,5.83
2019-01-10T02:05:02.867Z,8.40
2019-01-10T02:10:03.372Z,6.40
2019-01-10T02:15:02.781Z,4.83
2019-01-10T02:20:03.232Z,5.33
2019-01-10T02:25:02.660Z,4.53
2019-01-10T02:30:03.004Z,4.40
2019-01-10T02:35:02.332Z,4.97
2019-01-10T02:40:02.751Z,4.80
2019-01-10T02:45:03.109Z,4.57
2019-01-10T02:50:02.513Z,3.90
2019-01-10T02:55:02.858Z,5.20
2019-01-10T03:00:03.301Z,4.43
2019-01-10T03:05:02.725Z,4.63
2019-01-10T03:10:03.165Z,4.97
2019-01-10T03:15:02.634Z,4.80
2019-01-10T03:20:03.034Z,4.27
2019-01-10T03:25:02.441Z,4.43
2019-01-10T03:30:02.780Z,4.50
2019-01-10T03:35:03.229Z,4.27
2019-01-10T03:40:02.611Z,4.40
2019-01-10T03:45:02.992Z,4.13
2019-01-10T03:50:02.401Z,4.37
2019-01-10T03:55:02.759Z,4.27
2019-01-10T04:00:03.231Z,4.03
2019-01-10T04:05:02.639Z,5.17
2019-01-10T04:10:03.048Z,4.43
2019-01-10T04:15:02.522Z,4.60
2019-01-10T04:20:02.915Z,4.50
2019-01-10T04:25:03.290Z,4.60
2019-01-10T04:30:02.702Z,4.43
2019-01-10T04:35:03.127Z,4.50
2019-01-10T04:40:02.566Z,4.43
2019-01-10T04:45:02.975Z,4.63
2019-01-10T04:50:02.398Z,4.73
2019-01-10T04:55:02.748Z,4.50
2019-01-10T05:00:03.190Z,4.60
2019-01-10T05:05:02.638Z,5.00
2019-01-10T05:10:03.053Z,4.47
2019-01-10T05:15:02.475Z,4.73
2019-01-10T05:20:02.910Z,5.10
2019-01-10T05:25:03.227Z,4.70
2019-01-10T05:30:02.558Z,4.60
2019-01-10T05:35:02.921Z,4.97
2019-01-10T05:40:02.325Z,5.00
2019-01-10T05:45:02.816Z,4.40
2019-01-10T05:50:02.439Z,0
2019-01-10T05:55:02.837Z,4.53
2019-01-10T06:00:03.286Z,4.40
2019-01-10T06:05:02.697Z,4.60
2019-01-10T06:10:03.138Z,4.80
2019-01-10T06:15:02.563Z,4.77
2019-01-10T06:20:02.934Z,4.47
2019-01-10T06:25:03.349Z,4.63
2019-01-10T06:30:02.800Z,4.20
2019-01-10T06:35:03.202Z,4.37
2019-01-10T06:40:02.618Z,4.03
2019-01-10T06:45:02.971Z,3.97
2019-01-10T06:50:03.308Z,4.60
2019-01-10T06:55:02.820Z,4.50
2019-01-10T07:00:03.578Z,4.67
2019-01-10T07:05:02.997Z,4.97
2019-01-10T07:10:02.520Z,4.80
2019-01-10T07:15:02.960Z,4.40
2019-01-10T07:20:03.442Z,4.77
2019-01-10T07:25:02.867Z,4.70
2019-01-10T07:30:03.271Z,9.97
2019-01-10T07:35:02.621Z,6.60
2019-01-10T07:40:03.068Z,5.80
2019-01-10T07:45:03.094Z,5.33
2019-01-10T07:50:02.593Z,5.57
2019-01-10T07:55:03.032Z,6.40
2019-01-10T08:00:02.452Z,5.83
2019-01-10T08:05:02.827Z,5.10
2019-01-10T08:10:03.333Z,4.70
2019-01-10T08:15:11.634Z,4.90
2019-01-10T08:20:02.405Z,5.20
2019-01-10T08:25:02.025Z,0
2019-01-10T08:30:02.446Z,11.20
2019-01-10T08:35:02.931Z,10.77
2019-01-10T08:40:02.414Z,7.80
2019-01-10T08:45:02.917Z,5.70
2019-01-10T08:50:03.245Z,5.27
2019-01-10T08:55:02.607Z,4.97
2019-01-10T09:00:02.952Z,5.10
2019-01-10T09:05:03.302Z,5.40
2019-01-10T09:10:02.706Z,8.13
2019-01-10T09:15:03.063Z,6.60
2019-01-10T09:20:02.470Z,6.27
2019-01-10T09:25:02.925Z,6.30
2019-01-10T09:30:03.269Z,5.70
2019-01-10T09:35:02.674Z,5.50
2019-01-10T09:40:03.164Z,5.47
2019-01-10T09:45:02.577Z,5.40
2019-01-10T09:50:02.979Z,5.20
2019-01-10T09:55:02.443Z,5.23
2019-01-10T10:00:02.874Z,5.93
2019-01-10T10:05:03.300Z,5.43
2019-01-10T10:10:02.714Z,5.37
2019-01-10T10:15:03.154Z,4.87
2019-01-10T10:20:02.569Z,5.90
2019-01-10T10:25:02.917Z,7.33
2019-01-10T10:30:03.357Z,6.10
2019-01-10T10:35:02.775Z,6.80
2019-01-10T10:40:03.226Z,6.70
2019-01-10T10:45:02.641Z,6.00
2019-01-10T10:50:03.162Z,5.57
2019-01-10T10:55:02.596Z,5.47
2019-01-10T11:00:03.040Z,7.80
2019-01-10T11:05:02.465Z,8.47
2019-01-10T11:10:02.907Z,5.70
2019-01-10T11:15:03.360Z,6.00
2019-01-10T11:20:02.760Z,5.73
2019-01-10T11:25:03.114Z,5.00
2019-01-10T11:30:02.520Z,5.80
2019-01-10T11:35:02.869Z,5.33
2019-01-10T11:40:03.345Z,4.80
2019-01-10T11:45:02.771Z,4.80
2019-01-10T11:50:03.178Z,5.30
2019-01-10T11:55:02.601Z,5.00
2019-01-10T12:00:02.961Z,4.73
2019-01-10T12:05:03.381Z,4.70
2019-01-10T12:10:02.788Z,4.50
2019-01-10T12:15:03.149Z,6.60
2019-01-10T12:20:02.556Z,7.43
2019-01-10T12:25:02.905Z,6.27
2019-01-10T12:30:03.341Z,5.40
2019-01-10T12:35:02.768Z,4.95
2019-01-10T12:40:03.212Z,5.10
2019-01-10T12:45:02.628Z,4.90
2019-01-10T12:50:03.008Z,5.15
2019-01-10T12:55:02.411Z,4.80
2019-01-10T13:00:02.828Z,4.70
2019-01-10T13:05:03.280Z,5.33
2019-01-10T13:10:02.700Z,5.83
2019-01-10T13:15:03.043Z,7.50
2019-01-10T13:20:02.390Z,6.40
2019-01-10T13:25:01.925Z,0
2019-01-10T13:30:03.376Z,4.70
2019-01-10T13:35:06.911Z,0
2019-01-10T13:40:02.387Z,4.90
2019-01-10T13:45:02.727Z,4.80
2019-01-10T13:50:03.207Z,4.30
2019-01-10T13:55:02.900Z,4.30
2019-01-10T14:00:03.237Z,4.28
2019-01-10T14:05:02.647Z,4.20
2019-01-10T14:10:03.097Z,4.50
2019-01-10T14:15:02.522Z,4.75
2019-01-10T14:20:02.861Z,4.47
2019-01-10T14:25:03.212Z,3.98
2019-01-10T14:30:02.155Z,0
2019-01-10T14:35:02.577Z,4.80
2019-01-10T14:40:02.990Z,5.05
2019-01-10T14:45:02.344Z,4.20
2019-01-10T14:50:02.747Z,4.60
2019-01-10T14:55:03.095Z,4.67
2019-01-10T15:00:02.519Z,4.50
2019-01-10T15:05:02.851Z,4.95
2019-01-10T15:10:03.290Z,4.20
2019-01-10T15:15:02.713Z,5.17
2019-01-10T15:20:03.164Z,4.33
2019-01-10T15:25:02.583Z,4.70
2019-01-10T15:35:02.378Z,4.20
2019-01-10T15:40:02.919Z,4.10
2019-01-10T15:45:03.325Z,3.98
2019-01-10T15:50:02.739Z,4.00
2019-01-10T15:55:03.085Z,4.37
2019-01-10T16:00:02.499Z,4.00
2019-01-10T16:05:02.831Z,4.03
2019-01-10T16:10:03.286Z,3.85
2019-01-10T16:15:02.698Z,4.30
2019-01-10T16:20:03.147Z,4.05
2019-01-10T16:25:02.516Z,4.20
2019-01-10T16:30:02.914Z,4.57
2019-01-10T16:35:03.379Z,4.25
2019-01-10T16:40:02.762Z,3.85
2019-01-10T16:45:03.119Z,4.03
2019-01-10T16:50:02.529Z,4.10
2019-01-10T16:55:03.011Z,4.43
2019-01-10T17:00:02.399Z,4.40
2019-01-10T17:05:02.771Z,4.43
2019-01-10T17:10:03.278Z,4.20
2019-01-10T17:15:02.772Z,4.70
2019-01-10T17:20:03.144Z,4.73
2019-01-10T17:25:02.565Z,4.97
2019-01-10T17:30:03.004Z,4.22
2019-01-10T17:35:02.335Z,5.58
2019-01-10T17:40:02.770Z,6.30
2019-01-10T17:45:03.149Z,4.87
2019-01-10T17:50:02.519Z,4.10
2019-01-10T17:55:02.881Z,4.30
2019-01-10T18:00:03.308Z,3.80
2019-01-10T18:05:02.738Z,3.87
2019-01-10T18:10:03.171Z,4.20
2019-01-10T18:15:02.580Z,3.70
2019-01-10T18:20:02.927Z,4.67
2019-01-10T18:25:03.278Z,4.10
2019-01-10T18:30:02.683Z,4.30
2019-01-10T18:35:03.032Z,3.50
2019-01-10T18:40:02.450Z,3.90
2019-01-10T18:45:02.906Z,3.80
2019-01-10T18:50:03.274Z,4.50
2019-01-10T18:55:02.687Z,3.50
2019-01-10T19:00:03.098Z,3.22
2019-01-10T19:05:02.556Z,3.33
2019-01-10T19:10:02.980Z,3.40
2019-01-10T19:15:02.383Z,3.40
2019-01-10T19:20:02.742Z,3.63
2019-01-10T19:25:03.096Z,3.80
2019-01-10T19:30:01.675Z,0
2019-01-10T19:35:03.128Z,3.77
2019-01-10T19:40:02.892Z,4.47
2019-01-10T19:45:03.301Z,4.70
2019-01-10T19:50:02.745Z,4.57
2019-01-10T19:55:03.223Z,5.07
2019-01-10T20:00:02.579Z,4.92
2019-01-10T20:05:02.921Z,4.60
2019-01-10T20:10:02.350Z,4.60
2019-01-10T20:15:02.682Z,4.60
2019-01-10T20:20:03.026Z,5.07
2019-01-10T20:25:02.443Z,5.03
2019-01-10T20:30:02.886Z,4.73
2019-01-10T20:35:03.226Z,4.77
2019-01-10T20:40:02.658Z,4.70
2019-01-10T20:45:02.986Z,4.53
2019-01-10T20:50:02.410Z,5.10
2019-01-10T20:55:02.849Z,4.90
2019-01-10T21:00:03.323Z,4.50
2019-01-10T21:05:02.660Z,5.97
2019-01-10T21:10:03.202Z,6.33
2019-01-10T21:15:02.602Z,6.63
2019-01-10T21:20:02.924Z,5.37
2019-01-10T21:25:03.364Z,6.07
2019-01-10T21:30:02.772Z,6.07
2019-01-10T21:35:03.227Z,6.00
2019-01-10T21:40:02.642Z,5.57
2019-01-10T21:45:03.092Z,5.33
2019-01-10T21:50:03.437Z,5.83
2019-01-10T21:55:02.848Z,7.23
2019-01-10T22:00:03.527Z,6.23
2019-01-10T22:05:02.133Z,0
2019-01-10T22:10:02.543Z,5.53
2019-01-10T22:15:02.980Z,5.60
2019-01-10T22:20:02.404Z,6.27
2019-01-10T22:25:02.753Z,5.97
2019-01-10T22:30:03.216Z,6.57
2019-01-10T22:35:02.633Z,7.03
2019-01-10T22:40:03.045Z,6.53
2019-01-10T22:45:02.469Z,8.73
2019-01-10T22:50:02.902Z,7.97
2019-01-10T22:55:03.289Z,8.27
2019-01-10T23:00:02.696Z,8.63
2019-01-10T23:05:03.121Z,10.97
2019-01-10T23:10:02.529Z,10.20
2019-01-10T23:15:02.844Z,8.47
2019-01-10T23:20:03.210Z,10.00
2019-01-10T23:25:02.634Z,8.53
2019-01-10T23:30:03.081Z,9.77
2019-01-10T23:35:02.404Z,8.57
2019-01-10T23:40:02.839Z,10.17
2019-01-10T23:45:03.317Z,11.23
2019-01-10T23:50:02.696Z,13.37
2019-01-10T23:55:03.182Z,11.87
